Time;durP1;ratioP1;P1;durP2;ratioP2;P2;SDS_P1;SDS_P2;PMS_P1;PMS_P2;Temp;Humidity;BMP_temperature;BMP_pressure;BME280_temperature;BME280_humidity;BME280_pressure;Samples;Min_cycle;Max_cycle;Signal;HPM_P1;HPM_P2
2022/10/09 00:01:19;;;;;;;11.30;5.72;;;17.00;89.10;;;;;;5094921;28;20044;-77
2022/10/09 00:03:47;;;;;;;11.57;5.60;;;17.00;89.10;;;;;;5094784;28;20043;-76
2022/10/09 00:06:19;;;;;;;9.52;6.05;;;17.00;88.80;;;;;;5094993;28;20028;-85
2022/10/09 00:08:45;;;;;;;10.25;5.75;;;17.00;88.90;;;;;;5095065;28;20032;-76
2022/10/09 00:11:28;;;;;;;15.20;6.53;;;16.90;89.30;;;;;;5094598;28;20103;-76
2022/10/09 00:13:54;;;;;;;;;;;16.90;89.10;;;;;;5095066;28;20127;-73
2022/10/09 00:16:21;;;;;;;13.07;5.60;;;16.90;89.00;;;;;;5094636;28;19904;-74
2022/10/09 00:18:48;;;;;;;14.25;6.32;;;16.90;89.10;;;;;;5094870;28;20028;-72
2022/10/09 00:21:39;;;;;;;11.80;5.60;;;16.90;89.00;;;;;;5094330;28;20110;-73
2022/10/09 00:24:05;;;;;;;13.33;5.13;;;16.80;89.00;;;;;;5092393;28;20040;-73
2022/10/09 00:26:32;;;;;;;11.15;4.65;;;16.80;89.10;;;;;;5094516;28;20337;-73
2022/10/09 00:28:58;;;;;;;13.13;4.15;;;16.80;89.10;;;;;;5094621;28;20506;-73
2022/10/09 00:31:23;;;;;;;13.75;4.05;;;16.80;89.00;;;;;;5092997;28;20028;-74
2022/10/09 00:33:49;;;;;;;10.00;4.07;;;16.80;89.00;;;;;;5094557;28;20499;-72
2022/10/09 00:36:21;;;;;;;9.48;4.20;;;16.80;89.20;;;;;;5093511;28;20058;-73
2022/10/09 00:38:47;;;;;;;10.65;4.03;;;16.80;89.10;;;;;;5094123;28;20499;-73
2022/10/09 00:41:19;;;;;;;9.95;4.28;;;16.80;88.90;;;;;;5093926;28;20107;-73
2022/10/09 00:43:53;;;;;;;9.50;4.47;;;16.70;89.10;;;;;;5093937;28;20046;-73
2022/10/09 00:46:37;;;;;;;9.93;4.28;;;16.70;89.20;;;;;;5093638;28;20089;-73
2022/10/09 00:49:09;;;;;;;9.07;4.80;;;16.70;89.40;;;;;;5094241;28;20036;-74
2022/10/09 00:51:35;;;;;;;7.60;4.40;;;16.60;89.70;;;;;;5092797;28;20042;-73
2022/10/09 00:54:04;;;;;;;11.52;5.30;;;16.60;89.70;;;;;;5094232;28;20036;-74
2022/10/09 00:56:30;;;;;;;11.20;4.68;;;16.60;89.70;;;;;;5093937;28;20044;-73
2022/10/09 00:58:57;;;;;;;10.13;4.70;;;16.60;89.80;;;;;;5091443;28;20154;-76
2022/10/09 01:01:23;;;;;;;6.25;4.30;;;16.60;89.70;;;;;;5089696;28;20067;-74
2022/10/09 01:03:48;;;;;;;9.75;4.32;;;16.60;89.50;;;;;;5091080;28;20078;-74
2022/10/09 01:06:33;;;;;;;13.50;5.43;;;16.60;89.70;;;;;;5093587;28;20032;-73
2022/10/09 01:09:12;;;;;;;11.40;4.85;;;16.60;89.50;;;;;;5092251;28;20032;-73
2022/10/09 01:11:43;;;;;;;17.23;5.03;;;16.50;89.80;;;;;;5093423;28;20039;-74
2022/10/09 01:14:42;;;;;;;12.35;4.70;;;16.60;89.90;;;;;;5093555;28;20032;-74
2022/10/09 01:17:16;;;;;;;10.52;4.63;;;16.50;89.90;;;;;;5093511;28;20039;-74
2022/10/09 01:20:03;;;;;;;9.88;5.15;;;16.50;90.00;;;;;;5093606;28;20031;-74
2022/10/09 01:22:41;;;;;;;11.82;5.40;;;16.50;89.90;;;;;;5093245;28;20091;-74
2022/10/09 01:25:24;;;;;;;10.88;5.00;;;16.50;90.00;;;;;;5092159;28;20028;-74
2022/10/09 01:27:50;;;;;;;8.57;4.60;;;16.50;90.10;;;;;;5092772;28;20361;-73
2022/10/09 01:30:16;;;;;;;11.55;4.72;;;16.50;90.20;;;;;;5093492;28;20119;-73
2022/10/09 01:32:46;;;;;;;11.05;4.55;;;16.50;90.30;;;;;;5093269;28;20035;-73
2022/10/09 01:35:14;;;;;;;7.60;4.57;;;16.60;90.40;;;;;;5093025;28;20028;-74
2022/10/09 01:37:42;;;;;;;12.38;4.55;;;16.50;90.30;;;;;;5093292;28;20039;-73
2022/10/09 01:40:09;;;;;;;9.27;4.95;;;16.50;90.20;;;;;;5093419;28;20423;-74
2022/10/09 01:42:34;;;;;;;10.55;4.47;;;16.50;90.10;;;;;;5093124;28;20047;-74
2022/10/09 01:45:00;;;;;;;12.95;4.80;;;16.50;90.10;;;;;;5093018;28;20028;-76
2022/10/09 01:47:26;;;;;;;13.13;5.35;;;16.50;90.20;;;;;;5091682;28;20032;-74
2022/10/09 01:50:21;;;;;;;12.10;4.55;;;16.50;90.00;;;;;;5093233;28;20036;-74
2022/10/09 01:52:54;;;;;;;14.57;5.82;;;16.50;90.10;;;;;;5093232;28;20399;-74
2022/10/09 01:55:47;;;;;;;17.52;4.90;;;16.50;89.90;;;;;;5092800;28;20066;-77
2022/10/09 01:58:22;;;;;;;10.65;4.75;;;16.40;89.80;;;;;;5093009;28;20347;-74
2022/10/09 02:00:57;;;;;;;8.25;4.88;;;16.40;90.00;;;;;;5093082;28;20036;-73
2022/10/09 02:03:26;;;;;;;9.60;5.50;;;16.30;89.60;;;;;;5092903;28;20036;-74
2022/10/09 02:05:53;;;;;;;10.55;5.47;;;16.30;89.60;;;;;;5092568;28;20134;-73
2022/10/09 02:08:21;;;;;;;9.10;5.13;;;16.30;89.70;;;;;;5092823;28;20096;-73
2022/10/09 02:10:50;;;;;;;10.18;5.78;;;16.20;89.70;;;;;;5092849;28;20032;-74
2022/10/09 02:13:17;;;;;;;10.02;5.03;;;16.20;89.80;;;;;;5092999;28;20103;-73
2022/10/09 02:15:51;;;;;;;12.00;5.68;;;16.20;89.90;;;;;;5092931;28;20035;-74
2022/10/09 02:18:41;;;;;;;5.90;4.50;;;16.20;90.00;;;;;;5092743;28;20038;-74
2022/10/09 02:21:14;;;;;;;8.57;5.43;;;16.20;90.00;;;;;;5092522;28;20071;-73
2022/10/09 02:23:43;;;;;;;8.50;5.07;;;16.10;90.10;;;;;;5092792;28;20080;-73
2022/10/09 02:26:09;;;;;;;11.40;4.70;;;16.10;90.10;;;;;;5092717;28;20036;-75
2022/10/09 02:28:36;;;;;;;13.00;4.40;;;16.10;90.20;;;;;;5092852;28;20047;-76
2022/10/09 02:31:16;;;;;;;6.57;4.10;;;16.10;90.20;;;;;;5092864;28;20109;-76
2022/10/09 02:33:42;;;;;;;6.22;4.00;;;16.10;90.40;;;;;;5092716;28;20032;-76
2022/10/09 02:36:08;;;;;;;10.68;3.92;;;16.10;90.50;;;;;;5092865;28;20035;-76
2022/10/09 02:38:34;;;;;;;9.65;4.82;;;16.10;90.60;;;;;;5092939;28;20032;-76
2022/10/09 02:41:00;;;;;;;13.35;4.00;;;16.20;90.60;;;;;;5092623;28;20476;-76
2022/10/09 02:43:27;;;;;;;10.90;4.05;;;16.20;90.60;;;;;;5092323;28;20040;-75
2022/10/09 02:45:53;;;;;;;11.88;4.05;;;16.20;90.70;;;;;;5092684;28;20029;-77
2022/10/09 02:48:19;;;;;;;12.05;3.85;;;16.20;90.60;;;;;;5092597;28;20047;-76
2022/10/09 02:50:45;;;;;;;10.25;3.80;;;16.20;90.40;;;;;;5092674;28;20040;-76
2022/10/09 02:53:10;;;;;;;9.88;3.78;;;16.20;90.40;;;;;;5092391;28;20032;-76
2022/10/09 02:55:36;;;;;;;8.70;3.90;;;16.20;90.40;;;;;;5092541;28;20044;-76
2022/10/09 02:58:02;;;;;;;8.90;3.58;;;16.20;90.50;;;;;;5091387;28;20491;-76
2022/10/09 03:00:28;;;;;;;11.90;4.30;;;16.20;90.50;;;;;;5094114;28;20041;-77
2022/10/09 03:02:54;;;;;;;9.65;4.70;;;16.20;90.50;;;;;;5095976;28;20047;-76
2022/10/09 03:05:19;;;;;;;8.23;3.90;;;16.10;90.50;;;;;;5096007;28;20036;-76
2022/10/09 03:07:50;;;;;;;13.73;4.20;;;16.10;90.60;;;;;;5096096;28;20119;-76
2022/10/09 03:10:17;;;;;;;10.18;3.85;;;16.10;90.60;;;;;;5096080;28;20067;-77
2022/10/09 03:12:44;;;;;;;7.18;3.60;;;16.20;90.70;;;;;;5096082;28;20036;-76
2022/10/09 03:15:10;;;;;;;7.45;4.40;;;16.20;90.70;;;;;;5096021;28;20040;-74
2022/10/09 03:17:36;;;;;;;12.63;3.78;;;16.20;90.50;;;;;;5095946;28;20036;-73
2022/10/09 03:20:02;;;;;;;8.90;3.47;;;16.20;90.50;;;;;;5095520;28;20047;-74
2022/10/09 03:22:27;;;;;;;8.15;3.85;;;16.20;90.40;;;;;;5095467;28;20083;-73
2022/10/09 03:24:53;;;;;;;10.75;4.15;;;16.20;90.30;;;;;;5095818;28;20040;-74
2022/10/09 03:27:19;;;;;;;14.07;4.20;;;16.20;90.40;;;;;;5096068;28;20036;-73
2022/10/09 03:29:45;;;;;;;6.55;3.63;;;16.10;90.40;;;;;;5095456;28;20030;-74
2022/10/09 03:32:12;;;;;;;7.68;4.13;;;16.20;90.40;;;;;;5095791;28;20040;-73
2022/10/09 03:34:37;;;;;;;6.15;3.53;;;16.10;90.30;;;;;;5095646;28;20036;-76
2022/10/09 03:37:03;;;;;;;11.27;4.25;;;16.10;90.00;;;;;;5095376;28;20051;-73
2022/10/09 03:39:29;;;;;;;6.60;3.67;;;16.10;90.00;;;;;;5095384;28;20051;-73
2022/10/09 03:41:54;;;;;;;13.30;4.20;;;16.00;90.00;;;;;;5095064;28;20035;-73
2022/10/09 03:44:20;;;;;;;12.77;4.30;;;16.00;90.10;;;;;;5095346;28;20113;-73
2022/10/09 03:46:46;;;;;;;10.80;3.92;;;16.00;90.20;;;;;;5095196;28;20032;-73
2022/10/09 03:49:12;;;;;;;9.38;3.75;;;16.00;90.30;;;;;;5095292;28;20397;-73
2022/10/09 03:51:37;;;;;;;7.40;3.75;;;16.00;90.40;;;;;;5093999;28;20032;-73
2022/10/09 03:54:03;;;;;;;7.55;3.80;;;16.00;90.40;;;;;;5095288;28;20062;-73
2022/10/09 03:56:29;;;;;;;13.35;4.03;;;16.00;90.50;;;;;;5095125;28;20410;-74
2022/10/09 03:58:55;;;;;;;12.05;4.30;;;16.10;90.50;;;;;;5094604;28;20028;-74
2022/10/09 04:01:20;;;;;;;12.15;4.18;;;16.10;90.40;;;;;;5095116;28;20086;-77
2022/10/09 04:03:46;;;;;;;12.60;4.35;;;16.20;90.30;;;;;;5094410;28;20044;-74
2022/10/09 04:06:12;;;;;;;7.90;3.88;;;16.20;90.20;;;;;;5094557;28;20035;-74
2022/10/09 04:08:37;;;;;;;10.18;4.28;;;16.20;90.20;;;;;;5094909;28;20107;-74
2022/10/09 04:11:03;;;;;;;11.65;5.57;;;16.30;90.10;;;;;;5094773;28;21138;-73
2022/10/09 04:13:28;;;;;;;12.48;7.10;;;16.30;90.10;;;;;;5094756;28;20383;-74
2022/10/09 04:15:55;;;;;;;10.25;6.18;;;16.30;90.10;;;;;;5094851;28;20503;-74
2022/10/09 04:18:21;;;;;;;9.88;5.00;;;16.30;90.00;;;;;;5094242;28;20040;-73
2022/10/09 04:20:55;;;;;;;8.32;4.60;;;16.40;89.80;;;;;;5094451;28;20044;-76
2022/10/09 04:23:24;;;;;;;10.70;4.40;;;16.40;89.90;;;;;;5094571;28;20058;-73
2022/10/09 04:25:54;;;;;;;8.70;3.40;;;16.40;89.50;;;;;;5094700;28;20024;-73
2022/10/09 04:28:22;;;;;;;8.48;4.03;;;16.40;89.40;;;;;;5094564;28;20073;-73
2022/10/09 04:30:47;;;;;;;10.57;3.67;;;16.30;89.00;;;;;;5094516;28;20036;-73
2022/10/09 04:33:13;;;;;;;15.82;5.22;;;16.30;88.50;;;;;;5094363;28;20070;-74
2022/10/09 04:35:43;;;;;;;8.63;3.97;;;16.20;88.50;;;;;;5094487;28;20039;-73
2022/10/09 04:38:08;;;;;;;11.18;3.55;;;16.20;89.50;;;;;;5094422;28;20106;-73
2022/10/09 04:40:34;;;;;;;10.52;4.05;;;16.10;89.40;;;;;;5093880;28;20166;-73
2022/10/09 04:43:00;;;;;;;9.07;3.63;;;16.10;89.50;;;;;;5094149;28;20076;-74
2022/10/09 04:45:25;;;;;;;9.35;4.25;;;16.10;89.80;;;;;;5094135;28;20032;-74
2022/10/09 04:47:51;;;;;;;7.22;4.10;;;16.10;90.00;;;;;;5094153;28;20035;-74
2022/10/09 04:50:17;;;;;;;14.32;4.45;;;16.20;89.90;;;;;;5093874;28;20040;-74
2022/10/09 04:52:43;;;;;;;10.27;4.43;;;16.20;90.00;;;;;;5094023;28;20086;-73
2022/10/09 04:55:09;;;;;;;10.20;4.78;;;16.20;89.90;;;;;;5093857;28;20039;-73
2022/10/09 04:57:34;;;;;;;9.82;4.55;;;16.30;89.70;;;;;;5094327;28;20028;-73
2022/10/09 05:00:00;;;;;;;15.82;4.55;;;16.40;89.70;;;;;;5093924;28;20085;-73
2022/10/09 05:02:25;;;;;;;12.25;4.22;;;16.30;89.80;;;;;;5093799;28;20054;-74
2022/10/09 05:04:51;;;;;;;8.23;4.53;;;16.40;89.70;;;;;;5093926;28;20036;-74
2022/10/09 05:07:17;;;;;;;14.90;4.70;;;16.40;89.50;;;;;;5093814;28;20118;-73
2022/10/09 05:09:42;;;;;;;16.63;4.80;;;16.40;89.30;;;;;;5094055;28;20051;-73
2022/10/09 05:12:08;;;;;;;9.80;4.97;;;16.50;88.90;;;;;;5093793;28;20063;-74
2022/10/09 05:14:34;;;;;;;12.23;5.20;;;16.50;88.80;;;;;;5093708;28;20464;-72
2022/10/09 05:17:03;;;;;;;14.95;5.60;;;16.60;88.70;;;;;;5093517;28;20530;-73
2022/10/09 05:19:30;;;;;;;10.80;5.78;;;16.60;88.60;;;;;;5093531;28;20119;-73
2022/10/09 05:21:56;;;;;;;15.52;5.57;;;16.70;88.40;;;;;;5093177;28;20044;-73
2022/10/09 05:24:22;;;;;;;12.32;6.18;;;16.70;88.10;;;;;;5093249;28;20551;-73
2022/10/09 05:26:47;;;;;;;8.65;5.80;;;16.80;87.90;;;;;;5091709;28;20043;-73
2022/10/09 05:29:13;;;;;;;12.88;6.18;;;16.80;87.70;;;;;;5090699;28;20081;-73
2022/10/09 05:31:39;;;;;;;12.07;6.13;;;16.90;87.20;;;;;;5090480;28;20115;-75
2022/10/09 05:34:04;;;;;;;12.07;7.40;;;16.90;87.10;;;;;;5092702;28;20032;-73
2022/10/09 05:36:30;;;;;;;14.68;7.15;;;17.00;87.00;;;;;;5091651;28;20428;-88
2022/10/09 05:38:56;;;;;;;12.30;6.47;;;17.10;87.50;;;;;;5090622;28;20373;-86
2022/10/09 05:41:22;;;;;;;14.13;6.15;;;17.10;86.70;;;;;;5091084;28;20028;-77
2022/10/09 05:43:49;;;;;;;15.75;6.28;;;17.20;86.50;;;;;;5090560;28;20518;-74
2022/10/09 05:46:16;;;;;;;13.82;6.13;;;17.20;86.10;;;;;;5093219;28;20028;-83
2022/10/09 05:48:44;;;;;;;13.98;6.38;;;17.20;86.10;;;;;;5093363;28;20059;-84
2022/10/09 05:51:11;;;;;;;11.25;6.68;;;17.20;86.10;;;;;;5093374;28;20154;-74
2022/10/09 05:53:38;;;;;;;9.88;7.05;;;17.20;86.10;;;;;;5101034;28;20050;-75
2022/10/09 05:56:13;;;;;;;10.23;6.55;;;17.30;86.20;;;;;;5101992;28;20056;-76
2022/10/09 05:58:40;;;;;;;10.55;6.47;;;17.30;86.70;;;;;;5099606;28;20035;-77
2022/10/09 06:01:07;;;;;;;13.65;7.55;;;17.30;86.10;;;;;;5102638;28;20427;-76
2022/10/09 06:03:36;;;;;;;12.60;6.43;;;17.30;86.00;;;;;;5104025;28;20453;-76
2022/10/09 06:06:04;;;;;;;10.88;6.40;;;17.40;85.40;;;;;;5100735;28;20495;-75
2022/10/09 06:08:34;;;;;;;8.32;6.75;;;17.40;85.30;;;;;;5093071;28;20028;-76
2022/10/09 06:11:17;;;;;;;10.43;7.22;;;17.40;85.20;;;;;;5092825;28;20036;-76
2022/10/09 06:13:44;;;;;;;10.93;6.50;;;17.50;85.00;;;;;;5092713;28;20039;-75
2022/10/09 06:16:12;;;;;;;16.73;6.57;;;17.50;85.20;;;;;;5092787;28;20024;-76
2022/10/09 06:18:45;;;;;;;15.73;6.65;;;17.50;85.20;;;;;;5092826;28;20473;-76
2022/10/09 06:21:10;;;;;;;;;;;17.50;85.20;;;;;;5093309;28;20028;-76
2022/10/09 06:23:36;;;;;;;15.88;6.95;;;17.60;85.40;;;;;;5092818;28;20257;-75
2022/10/09 06:26:05;;;;;;;14.65;7.18;;;17.60;85.50;;;;;;5092749;28;20111;-76
2022/10/09 06:28:31;;;;;;;13.68;6.50;;;17.60;85.90;;;;;;5092858;28;20028;-76
2022/10/09 06:31:25;;;;;;;10.73;6.55;;;17.60;86.20;;;;;;5092870;28;20489;-74
2022/10/09 06:33:52;;;;;;;9.98;6.03;;;17.60;86.40;;;;;;5091209;28;20442;-74
2022/10/09 06:36:26;;;;;;;10.88;6.50;;;17.60;86.50;;;;;;5100284;28;20488;-73
2022/10/09 06:38:53;;;;;;;9.27;5.95;;;17.70;86.80;;;;;;5102832;28;20052;-74
2022/10/09 06:41:21;;;;;;;9.90;5.90;;;17.70;86.70;;;;;;5098018;28;20037;-74
2022/10/09 06:43:55;;;;;;;13.77;5.40;;;17.70;86.40;;;;;;5096498;28;20036;-89
2022/10/09 06:46:25;;;;;;;14.93;5.97;;;17.80;86.80;;;;;;5096296;28;20040;-73
2022/10/09 06:48:50;;;;;;;15.35;6.00;;;17.80;86.60;;;;;;5096513;28;20036;-74
2022/10/09 06:51:19;;;;;;;12.35;5.72;;;17.80;86.70;;;;;;5096378;28;20036;-74
2022/10/09 06:53:50;;;;;;;9.90;5.88;;;17.80;86.80;;;;;;5096392;28;20059;-73
2022/10/09 06:56:17;;;;;;;16.63;6.90;;;17.90;86.30;;;;;;5096402;28;20028;-74
2022/10/09 06:58:43;;;;;;;12.70;6.40;;;17.90;86.20;;;;;;5096378;28;20036;-73
2022/10/09 07:01:25;;;;;;;9.93;6.43;;;18.00;85.30;;;;;;5096436;28;20028;-73
2022/10/09 07:03:56;;;;;;;10.57;6.15;;;18.00;85.00;;;;;;5095752;28;20040;-73
2022/10/09 07:06:24;;;;;;;15.75;6.30;;;18.00;84.80;;;;;;5096030;28;20043;-73
2022/10/09 07:08:53;;;;;;;12.55;6.40;;;18.10;84.30;;;;;;5102228;28;20476;-74
2022/10/09 07:11:21;;;;;;;15.05;6.70;;;18.10;84.20;;;;;;5105297;28;20396;-74
2022/10/09 07:13:59;;;;;;;9.05;5.53;;;18.20;84.30;;;;;;5111022;28;20039;-73
2022/10/09 07:16:28;;;;;;;16.95;5.88;;;18.20;83.40;;;;;;5101182;28;20073;-74
2022/10/09 07:18:54;;;;;;;11.43;5.90;;;18.30;83.30;;;;;;5095445;28;20075;-73
2022/10/09 07:21:20;;;;;;;17.25;6.05;;;18.40;82.90;;;;;;5095778;28;20072;-74
2022/10/09 07:23:46;;;;;;;12.10;5.35;;;18.40;82.80;;;;;;5101045;28;20051;-74
2022/10/09 07:26:19;;;;;;;26.52;7.45;;;18.40;82.40;;;;;;5095670;28;20028;-85
2022/10/09 07:28:45;;;;;;;14.95;5.63;;;18.50;82.50;;;;;;5093472;28;20025;-74
2022/10/09 07:31:11;;;;;;;12.77;5.82;;;18.50;83.00;;;;;;5092689;28;20119;-74
2022/10/09 07:33:37;;;;;;;12.23;5.35;;;18.60;83.20;;;;;;5094085;28;20107;-74
2022/10/09 07:36:04;;;;;;;12.85;6.15;;;18.60;83.00;;;;;;5095600;28;20032;-74
2022/10/09 07:38:31;;;;;;;11.70;5.63;;;18.60;82.90;;;;;;5095086;28;20024;-75
2022/10/09 07:41:08;;;;;;;10.18;5.30;;;18.60;82.70;;;;;;5095464;28;20491;-74
2022/10/09 07:43:35;;;;;;;14.18;5.43;;;18.70;83.00;;;;;;5095236;28;20071;-75
2022/10/09 07:46:02;;;;;;;13.18;5.72;;;18.70;82.40;;;;;;5095051;28;20043;-74
2022/10/09 07:48:28;;;;;;;14.38;5.60;;;18.70;81.80;;;;;;5095527;28;20430;-74
2022/10/09 07:50:54;;;;;;;9.80;4.72;;;18.80;81.70;;;;;;5095309;28;20111;-74
2022/10/09 07:53:20;;;;;;;11.05;4.90;;;18.80;81.70;;;;;;5095210;28;20101;-74
2022/10/09 07:55:47;;;;;;;10.93;5.53;;;18.90;81.80;;;;;;5098189;28;20450;-75
2022/10/09 07:58:14;;;;;;;15.93;4.97;;;18.90;81.70;;;;;;5092254;28;20056;-75
2022/10/09 08:00:40;;;;;;;12.50;5.60;;;18.90;81.50;;;;;;5092937;28;20039;-76
2022/10/09 08:03:06;;;;;;;11.15;5.40;;;18.90;81.10;;;;;;5095268;28;20044;-73
2022/10/09 08:05:32;;;;;;;12.38;4.65;;;19.00;81.20;;;;;;5094666;28;20024;-73
2022/10/09 08:07:58;;;;;;;6.93;4.45;;;19.00;80.80;;;;;;5094630;28;20036;-83
2022/10/09 08:10:23;;;;;;;9.18;4.90;;;19.00;79.90;;;;;;5094836;28;20032;-73
2022/10/09 08:12:49;;;;;;;9.80;5.03;;;19.10;79.80;;;;;;5094816;28;20032;-73
2022/10/09 08:15:15;;;;;;;8.48;4.70;;;19.10;79.80;;;;;;5092376;28;20414;-73
2022/10/09 08:17:41;;;;;;;14.40;5.28;;;19.10;79.70;;;;;;5090512;28;20040;-73
2022/10/09 08:20:07;;;;;;;13.75;4.53;;;19.10;80.00;;;;;;5091918;28;20082;-72
2022/10/09 08:22:33;;;;;;;9.68;4.75;;;19.10;80.10;;;;;;5099408;28;20506;-72
2022/10/09 08:24:59;;;;;;;14.88;5.15;;;19.10;78.20;;;;;;5094387;28;20358;-73
2022/10/09 08:27:24;;;;;;;13.43;5.15;;;19.10;78.50;;;;;;5094184;28;20392;-73
2022/10/09 08:29:50;;;;;;;12.90;5.00;;;19.10;79.30;;;;;;5093998;28;20043;-73
2022/10/09 08:32:16;;;;;;;8.82;4.47;;;19.20;80.00;;;;;;5094425;28;20032;-73
2022/10/09 08:34:42;;;;;;;9.85;5.10;;;19.20;80.10;;;;;;5091262;28;20036;-72
2022/10/09 08:37:07;;;;;;;15.65;5.07;;;19.20;80.90;;;;;;5091567;28;20114;-73
2022/10/09 08:39:33;;;;;;;9.10;4.97;;;19.20;80.60;;;;;;5091535;28;20115;-73
2022/10/09 08:42:02;;;;;;;22.52;5.55;;;19.20;81.30;;;;;;5093549;28;20048;-72
2022/10/09 08:44:41;;;;;;;12.80;5.97;;;19.20;81.60;;;;;;5093764;28;20036;-73
2022/10/09 08:47:13;;;;;;;12.88;5.53;;;19.20;81.30;;;;;;5094435;28;20032;-72
2022/10/09 08:49:55;;;;;;;7.13;4.82;;;19.20;81.20;;;;;;5094607;28;20055;-72
2022/10/09 08:52:45;;;;;;;8.43;5.40;;;19.20;80.60;;;;;;5094336;28;20409;-87
2022/10/09 08:55:22;;;;;;;10.55;4.88;;;19.30;81.50;;;;;;5094178;28;20036;-72
2022/10/09 08:57:51;;;;;;;11.60;4.72;;;19.30;81.40;;;;;;5093422;28;20031;-72
2022/10/09 09:00:22;;;;;;;14.27;5.18;;;19.30;80.30;;;;;;5093075;28;20035;-73
2022/10/09 09:03:17;;;;;;;11.05;5.32;;;19.30;78.10;;;;;;5092985;28;20036;-72
2022/10/09 09:06:01;;;;;;;14.60;5.25;;;19.40;78.20;;;;;;5093394;28;20040;-72
2022/10/09 09:08:41;;;;;;;14.18;5.70;;;19.40;78.20;;;;;;5093600;28;20036;-73
2022/10/09 09:11:09;;;;;;;12.18;5.10;;;19.50;77.50;;;;;;5093296;28;20119;-72
2022/10/09 09:13:52;;;;;;;11.48;5.15;;;19.50;77.40;;;;;;5093142;28;20081;-73
2022/10/09 09:16:37;;;;;;;12.98;5.35;;;19.60;77.60;;;;;;5093544;28;20396;-73
2022/10/09 09:19:22;;;;;;;12.77;5.32;;;19.70;77.60;;;;;;5093623;28;20039;-73
2022/10/09 09:21:52;;;;;;;9.73;4.82;;;19.70;78.20;;;;;;5093390;28;20124;-72
2022/10/09 09:24:20;;;;;;;13.25;4.95;;;19.70;76.80;;;;;;5093765;28;20428;-72
2022/10/09 09:26:54;;;;;;;9.43;4.38;;;19.80;76.50;;;;;;5093660;28;20071;-72
2022/10/09 09:29:24;;;;;;;9.85;4.78;;;19.90;75.50;;;;;;5093694;28;20059;-85
2022/10/09 09:31:57;;;;;;;13.52;5.10;;;19.90;75.20;;;;;;5093358;28;20028;-72
2022/10/09 09:34:35;;;;;;;12.82;5.30;;;19.90;75.00;;;;;;5093430;28;20055;-72
2022/10/09 09:37:01;;;;;;;14.35;4.20;;;20.00;75.60;;;;;;5092011;28;20089;-72
2022/10/09 09:39:30;;;;;;;13.20;4.47;;;20.00;74.90;;;;;;5093398;28;20032;-72
2022/10/09 09:42:20;;;;;;;12.50;4.68;;;20.10;74.50;;;;;;5093469;28;20032;-72
2022/10/09 09:44:54;;;;;;;11.82;4.07;;;20.10;74.40;;;;;;5092852;28;20079;-73
2022/10/09 09:47:26;;;;;;;12.48;4.72;;;20.20;73.60;;;;;;5093167;28;20392;-72
2022/10/09 09:49:54;;;;;;;9.48;4.63;;;20.30;73.90;;;;;;5093395;28;20047;-72
2022/10/09 09:52:20;;;;;;;11.57;3.88;;;20.30;73.60;;;;;;5093276;28;20028;-72
2022/10/09 09:54:49;;;;;;;13.32;3.78;;;20.40;71.10;;;;;;5093167;28;20043;-72
2022/10/09 09:57:31;;;;;;;7.65;3.88;;;20.40;70.60;;;;;;5093133;28;20107;-72
2022/10/09 10:00:29;;;;;;;13.82;3.80;;;20.50;70.80;;;;;;5093412;28;20047;-72
2022/10/09 10:03:13;;;;;;;15.25;4.18;;;20.60;68.90;;;;;;5070195;28;20043;-87
2022/10/09 10:05:40;;;;;;;10.70;3.50;;;20.60;68.80;;;;;;5093080;28;20082;-73
2022/10/09 10:08:22;;;;;;;14.70;3.97;;;20.60;68.90;;;;;;5093298;28;20089;-73
2022/10/09 10:10:50;;;;;;;8.68;3.00;;;20.70;67.90;;;;;;5097720;28;20394;-72
2022/10/09 10:13:47;;;;;;;15.35;3.17;;;20.70;67.90;;;;;;5097213;28;20040;-88
2022/10/09 10:16:20;;;;;;;6.05;3.00;;;20.80;68.20;;;;;;5096643;28;20046;-84
2022/10/09 10:18:46;;;;;;;12.32;3.85;;;20.80;66.60;;;;;;5097300;28;20036;-88
2022/10/09 10:21:14;;;;;;;7.40;2.90;;;20.80;67.90;;;;;;5096958;28;20051;-74
2022/10/09 10:24:04;;;;;;;11.15;2.80;;;20.90;69.00;;;;;;5096929;28;20047;-72
2022/10/09 10:26:45;;;;;;;12.73;3.17;;;20.90;66.90;;;;;;5096720;28;20480;-72
2022/10/09 10:29:19;;;;;;;18.17;3.97;;;21.00;65.10;;;;;;5096977;28;20559;-72
2022/10/09 10:32:12;;;;;;;8.27;3.15;;;21.10;65.40;;;;;;5097078;28;20033;-72
2022/10/09 10:34:47;;;;;;;10.07;2.83;;;21.10;65.20;;;;;;5096612;28;20112;-73
2022/10/09 10:37:13;;;;;;;10.27;2.35;;;21.10;64.70;;;;;;5097013;28;20043;-72
2022/10/09 10:39:53;;;;;;;13.60;3.55;;;21.20;63.40;;;;;;5096876;28;20081;-73
2022/10/09 10:42:30;;;;;;;7.95;2.83;;;21.20;65.00;;;;;;5096748;28;20392;-73
2022/10/09 10:45:18;;;;;;;8.15;2.88;;;21.20;62.90;;;;;;5096975;28;20036;-87
2022/10/09 10:47:54;;;;;;;11.93;2.72;;;21.30;63.60;;;;;;5097068;28;20115;-73
2022/10/09 10:50:22;;;;;;;9.35;2.67;;;21.30;62.80;;;;;;5096549;28;20024;-72
2022/10/09 10:53:03;;;;;;;11.45;3.00;;;21.40;64.30;;;;;;5096681;28;20036;-72
2022/10/09 10:55:54;;;;;;;9.55;3.13;;;21.40;61.10;;;;;;5096469;28;20055;-73
2022/10/09 10:58:43;;;;;;;10.00;3.83;;;21.50;60.90;;;;;;5096571;28;20499;-73
2022/10/09 11:01:35;;;;;;;11.70;2.78;;;21.50;62.50;;;;;;5075218;28;20044;-72
2022/10/09 11:04:01;;;;;;;;;;;21.50;62.10;;;;;;5096516;28;20047;-72
2022/10/09 11:07:02;;;;;;;10.57;3.50;;;21.50;61.40;;;;;;5096558;28;19910;-87
2022/10/09 11:18:42;;;;;;;11.63;3.10;;;21.50;59.70;;;;;;5112587;28;20070;-74
2022/10/09 11:21:07;;;;;;;9.93;3.25;;;21.50;59.40;;;;;;5052861;28;20515;-73
2022/10/09 11:23:52;;;;;;;8.50;3.45;;;21.50;59.60;;;;;;5055475;28;20124;-73
2022/10/09 11:26:20;;;;;;;6.15;2.90;;;21.50;60.40;;;;;;5055074;28;20035;-72
2022/10/09 11:29:00;;;;;;;9.77;3.33;;;21.60;60.20;;;;;;5055471;28;20107;-73
2022/10/09 11:31:29;;;;;;;11.85;3.63;;;21.60;58.70;;;;;;5061356;28;20037;-73
2022/10/09 11:34:02;;;;;;;12.30;3.10;;;21.60;60.30;;;;;;5055272;28;20041;-72
2022/10/09 11:36:37;;;;;;;9.90;3.20;;;21.60;59.40;;;;;;5052990;28;20037;-72
2022/10/09 11:39:14;;;;;;;11.70;3.30;;;21.70;59.30;;;;;;5052408;28;20032;-73
2022/10/09 11:41:44;;;;;;;10.23;3.65;;;21.60;58.90;;;;;;5052813;28;20523;-73
2022/10/09 11:44:48;;;;;;;6.10;2.90;;;21.60;58.40;;;;;;5054930;28;20041;-73
2022/10/09 11:47:26;;;;;;;7.28;2.72;;;21.70;59.40;;;;;;5054992;28;20084;-73
2022/10/09 11:50:13;;;;;;;11.80;3.10;;;21.70;58.80;;;;;;5054720;28;20477;-72
2022/10/09 11:53:03;;;;;;;9.52;3.60;;;21.70;58.00;;;;;;5054698;28;20492;-79
2022/10/09 11:55:32;;;;;;;11.30;3.20;;;21.70;59.20;;;;;;5054788;28;20039;-73
2022/10/09 11:58:13;;;;;;;10.35;3.78;;;21.70;58.30;;;;;;5055136;28;20044;-74
2022/10/09 12:00:41;;;;;;;12.38;3.17;;;21.70;58.10;;;;;;5054542;28;20127;-82
2022/10/09 12:03:21;;;;;;;9.77;3.03;;;21.70;59.00;;;;;;5054794;28;20086;-72
2022/10/09 12:05:49;;;;;;;10.23;3.22;;;21.60;58.40;;;;;;5054482;28;20037;-72
2022/10/09 12:08:17;;;;;;;14.55;4.32;;;21.60;59.60;;;;;;5054724;28;20029;-71
2022/10/09 12:10:59;;;;;;;6.53;3.60;;;21.60;58.80;;;;;;5054393;28;20397;-71
2022/10/09 12:13:43;;;;;;;9.52;3.13;;;21.60;58.40;;;;;;5054388;28;20033;-72
2022/10/09 12:16:35;;;;;;;12.35;3.50;;;21.70;58.50;;;;;;5037429;28;20025;-73
2022/10/09 12:19:04;;;;;;;9.57;3.90;;;21.70;58.00;;;;;;5043726;28;20036;-72
2022/10/09 12:21:47;;;;;;;7.90;3.30;;;21.80;58.80;;;;;;5074441;28;20321;-72
2022/10/09 12:24:18;;;;;;;7.32;3.05;;;21.90;57.70;;;;;;5074204;28;20049;-72
2022/10/09 12:26:46;;;;;;;11.45;3.65;;;21.90;57.20;;;;;;5074347;28;20031;-72
2022/10/09 12:29:28;;;;;;;8.68;3.53;;;21.90;57.10;;;;;;5073690;28;20071;-72
2022/10/09 12:31:57;;;;;;;8.80;3.45;;;21.90;57.20;;;;;;5073132;28;20037;-73
2022/10/09 12:34:30;;;;;;;6.93;3.00;;;22.00;58.00;;;;;;5073681;28;20113;-72
2022/10/09 12:37:12;;;;;;;;;;;22.00;57.70;;;;;;5073973;28;20032;-75
2022/10/09 12:39:38;;;;;;;10.23;3.47;;;22.00;57.30;;;;;;5074088;28;19995;-73
2022/10/09 12:42:04;;;;;;;10.52;3.67;;;22.00;56.80;;;;;;5074005;28;20115;-71
2022/10/09 12:44:31;;;;;;;12.98;3.15;;;22.00;57.20;;;;;;5073620;28;20049;-71
2022/10/09 12:47:07;;;;;;;12.15;3.13;;;22.00;57.40;;;;;;5073625;28;20041;-72
2022/10/09 12:49:33;;;;;;;8.73;3.10;;;22.10;55.60;;;;;;5073913;28;20037;-73
2022/10/09 12:52:00;;;;;;;6.75;2.85;;;22.10;55.90;;;;;;5073543;28;20028;-72
2022/10/09 12:54:28;;;;;;;7.78;3.03;;;22.10;55.10;;;;;;5073843;28;20071;-73
2022/10/09 12:56:56;;;;;;;10.05;3.17;;;22.10;55.80;;;;;;5073431;28;20102;-73
2022/10/09 12:59:24;;;;;;;9.95;3.15;;;22.10;55.50;;;;;;5073397;28;20036;-73
2022/10/09 13:01:54;;;;;;;8.68;3.05;;;22.00;54.80;;;;;;5073328;28;20107;-73
2022/10/09 13:04:30;;;;;;;5.80;2.70;;;22.10;55.20;;;;;;5073321;28;20064;-71
2022/10/09 13:06:58;;;;;;;11.48;3.97;;;22.00;55.30;;;;;;5072922;28;20040;-80
2022/10/09 13:09:27;;;;;;;7.95;3.00;;;22.10;55.80;;;;;;5073345;28;20032;-72